createdAt,value
2023-05-01T00:00:12.784Z,3.22
2023-05-01T00:05:21.715Z,3.55
2023-05-01T00:10:27.605Z,3.30
2023-05-01T00:15:29.480Z,3.25
2023-05-01T00:20:48.167Z,3.55
2023-05-01T00:25:47.226Z,3.47
2023-05-01T00:31:02.875Z,3.72
2023-05-01T00:36:12.547Z,3.92
2023-05-01T00:41:14.816Z,2.90
2023-05-01T00:46:15.801Z,4.10
2023-05-01T00:51:16.357Z,3.88
2023-05-01T00:56:20.694Z,4.40
2023-05-01T01:01:23.636Z,3.95
2023-05-01T01:06:47.215Z,3.30
2023-05-01T01:11:57.901Z,3.65
2023-05-01T01:17:38.060Z,3.72
2023-05-01T01:22:41.728Z,3.55
2023-05-01T01:28:21.345Z,4.22
2023-05-01T01:33:50.495Z,4.20
2023-05-01T01:39:15.153Z,3.85
2023-05-01T01:44:41.921Z,4.30
2023-05-01T01:49:48.328Z,3.88
2023-05-01T01:55:05.945Z,3.80
2023-05-01T02:00:20.828Z,4.07
2023-05-01T02:05:26.909Z,4.30
2023-05-01T02:10:30.216Z,4.93
2023-05-01T02:15:33.850Z,4.28
2023-05-01T02:20:35.803Z,4.20
2023-05-01T02:31:17.292Z,4.03
2023-05-01T02:36:17.014Z,4.68
2023-05-01T02:41:20.177Z,5.45
2023-05-01T02:46:28.256Z,4.60
2023-05-01T02:51:29.620Z,5.07
2023-05-01T02:56:31.049Z,5.13
2023-05-01T03:01:57.847Z,4.43
2023-05-01T03:07:02.081Z,4.88
2023-05-01T03:12:04.443Z,4.47
2023-05-01T03:17:30.545Z,4.78
2023-05-01T03:22:33.905Z,5.18
2023-05-01T03:27:39.672Z,6.45
2023-05-01T03:32:38.975Z,6.43
2023-05-01T03:37:45.914Z,5.53
2023-05-01T03:43:00.660Z,8.35
2023-05-01T03:48:08.772Z,5.45
2023-05-01T03:58:31.287Z,6.47
2023-05-01T04:03:31.258Z,5.50
2023-05-01T04:08:30.654Z,5.13
2023-05-01T04:13:35.715Z,4.97
2023-05-01T04:18:35.694Z,4.53
2023-05-01T04:23:40.143Z,4.32
2023-05-01T04:28:40.361Z,3.60
2023-05-01T04:34:12.355Z,4.00
2023-05-01T04:39:20.422Z,4.47
2023-05-01T04:44:22.102Z,4.30
2023-05-01T04:49:41.268Z,4.72
2023-05-01T04:54:44.776Z,4.30
2023-05-01T04:59:54.332Z,4.00
2023-05-01T05:05:02.025Z,3.83
2023-05-01T05:10:06.891Z,3.53
2023-05-01T05:15:16.805Z,4.45
2023-05-01T05:20:21.722Z,5.30
2023-05-01T05:25:20.465Z,4.00
2023-05-01T05:30:23.879Z,4.05
2023-05-01T05:35:35.132Z,5.28
2023-05-01T05:40:41.123Z,5.20
2023-05-01T05:45:47.189Z,5.65
2023-05-01T05:50:57.738Z,5.25
2023-05-01T05:56:07.462Z,5.65
2023-05-01T06:01:27.542Z,6.57
2023-05-01T06:06:39.522Z,7.30
2023-05-01T06:11:46.792Z,4.82
2023-05-01T06:16:53.797Z,5.75
2023-05-01T06:28:21.708Z,3.13
2023-05-01T06:33:25.895Z,3.55
2023-05-01T06:38:38.880Z,3.85
2023-05-01T06:43:43.937Z,3.60
2023-05-01T06:48:49.037Z,3.72
2023-05-01T06:53:49.282Z,3.97
2023-05-01T06:58:50.680Z,5.80
2023-05-01T07:03:52.304Z,4.15
2023-05-01T07:09:01.109Z,3.63
2023-05-01T07:14:07.288Z,3.08
2023-05-01T07:19:15.533Z,5.25
2023-05-01T07:24:14.814Z,4.60
2023-05-01T07:29:20.692Z,4.70
2023-05-01T07:34:26.595Z,4.97
2023-05-01T07:39:30.250Z,4.93
2023-05-01T07:44:39.033Z,4.80
2023-05-01T07:49:38.583Z,4.22
2023-05-01T07:54:42.042Z,4.97
2023-05-01T07:59:40.653Z,5.05
2023-05-01T08:04:41.747Z,4.93
2023-05-01T08:09:39.832Z,4.75
2023-05-01T08:14:40.137Z,4.32
2023-05-01T08:19:42.036Z,5.15
2023-05-01T08:24:45.646Z,4.43
2023-05-01T08:29:50.320Z,4.68
2023-05-01T08:34:53.362Z,4.50
2023-05-01T08:39:59.812Z,4.93
2023-05-01T08:45:01.167Z,4.93
2023-05-01T08:50:01.939Z,4.53
2023-05-01T08:55:05.193Z,4.30
2023-05-01T09:00:10.433Z,4.22
2023-05-01T09:05:21.355Z,4.70
2023-05-01T09:10:38.797Z,4.15
2023-05-01T09:15:53.405Z,3.90
2023-05-01T09:20:57.133Z,4.63
2023-05-01T09:26:15.437Z,5.18
2023-05-01T09:31:27.932Z,4.60
2023-05-01T09:41:57.536Z,5.18
2023-05-01T09:46:57.657Z,4.13
2023-05-01T09:52:14.791Z,5.10
2023-05-01T09:57:15.099Z,4.00
2023-05-01T10:02:37.220Z,4.57
2023-05-01T10:07:37.346Z,4.05
2023-05-01T10:12:44.887Z,3.97
2023-05-01T10:17:56.442Z,3.92
2023-05-01T10:23:02.795Z,3.55
2023-05-01T10:28:07.252Z,3.63
2023-05-01T10:33:08.409Z,3.80
2023-05-01T10:38:32.025Z,4.00
2023-05-01T10:43:39.377Z,3.08
2023-05-01T10:48:54.315Z,3.50
2023-05-01T10:54:17.966Z,3.60
2023-05-01T10:59:27.566Z,4.57
2023-05-01T11:04:37.419Z,5.20
2023-05-01T11:09:51.082Z,3.40
2023-05-01T11:15:06.944Z,3.55
2023-05-01T11:20:32.228Z,3.25
2023-05-01T11:25:37.430Z,3.20
2023-05-01T11:30:44.264Z,2.45
2023-05-01T11:35:48.296Z,2.50
2023-05-01T11:41:10.332Z,2.33
2023-05-01T11:46:15.503Z,2.40
2023-05-01T11:51:17.344Z,1.85
2023-05-01T11:56:44.054Z,2.35
2023-05-01T12:01:44.840Z,2.28
2023-05-01T12:06:49.708Z,2.10
2023-05-01T12:12:11.413Z,1.80
2023-05-01T12:17:17.046Z,2.67
2023-05-01T12:22:35.746Z,2.00
2023-05-01T12:27:54.641Z,2.03
2023-05-01T12:32:56.695Z,2.10
2023-05-01T12:38:05.876Z,2.50
2023-05-01T12:43:30.134Z,2.00
2023-05-01T12:48:43.770Z,2.10
2023-05-01T12:53:59.184Z,2.58
2023-05-01T12:59:01.107Z,2.40
2023-05-01T13:04:02.672Z,1.80
2023-05-01T13:09:12.221Z,2.33
2023-05-01T13:14:17.206Z,3.78
2023-05-01T13:19:36.475Z,2.30
2023-05-01T13:25:00.356Z,3.33
2023-05-01T13:30:10.764Z,1.90
2023-05-01T13:35:15.521Z,2.05
2023-05-01T13:40:19.002Z,2.25
2023-05-01T13:45:30.656Z,2.15
2023-05-01T13:56:06.657Z,2.25
2023-05-01T14:01:15.521Z,2.13
2023-05-01T14:06:29.039Z,2.45
2023-05-01T14:11:43.375Z,2.15
2023-05-01T14:16:56.330Z,2.42
2023-05-01T14:22:04.837Z,2.03
2023-05-01T14:27:15.185Z,6.03
2023-05-01T14:32:29.921Z,2.03
2023-05-01T14:37:36.179Z,2.80
2023-05-01T14:42:45.410Z,1.92
2023-05-01T14:47:49.210Z,1.88
2023-05-01T14:52:52.912Z,1.48
2023-05-01T14:58:03.957Z,2.28
2023-05-01T15:03:17.805Z,3.63
2023-05-01T15:08:37.321Z,1.70
2023-05-01T15:13:39.641Z,1.92
2023-05-01T15:18:42.956Z,2.47
2023-05-01T15:29:09.091Z,2.47
2023-05-01T15:34:14.402Z,1.90
2023-05-01T15:39:18.376Z,2.22
2023-05-01T15:44:31.429Z,2.30
2023-05-01T15:49:35.662Z,2.67
2023-05-01T15:54:53.609Z,2.20
2023-05-01T16:00:02.069Z,2.78
2023-05-01T16:05:07.631Z,3.03
2023-05-01T16:10:10.811Z,2.15
2023-05-01T16:15:20.150Z,1.70
2023-05-01T16:20:22.555Z,2.60
2023-05-01T16:25:24.453Z,2.00
2023-05-01T16:30:34.280Z,2.15
2023-05-01T16:35:37.393Z,3.05
2023-05-01T16:40:48.278Z,2.53
2023-05-01T16:46:07.385Z,3.13
2023-05-01T16:51:24.290Z,2.73
2023-05-01T16:56:37.327Z,2.40
2023-05-01T17:01:41.455Z,7.78
2023-05-01T17:06:45.430Z,5.07
2023-05-01T17:12:16.857Z,3.10
2023-05-01T17:17:17.959Z,3.70
2023-05-01T17:22:19.916Z,3.58
2023-05-01T17:34:02.162Z,4.43
2023-05-01T17:39:03.346Z,2.60
2023-05-01T17:44:09.151Z,3.10
2023-05-01T17:49:14.388Z,3.17
2023-05-01T17:54:20.841Z,4.47
2023-05-01T17:59:20.324Z,3.80
2023-05-01T18:04:19.443Z,4.53
2023-05-01T18:09:17.426Z,4.55
2023-05-01T18:14:16.270Z,6.40
2023-05-01T18:19:16.180Z,4.80
2023-05-01T18:24:18.697Z,4.00
2023-05-01T18:29:27.968Z,4.30
2023-05-01T18:39:27.913Z,3.60
2023-05-01T18:44:32.249Z,3.40
2023-05-01T18:55:59.685Z,4.28
2023-05-01T19:00:58.532Z,3.75
2023-05-01T19:05:59.409Z,3.72
2023-05-01T19:11:11.825Z,4.65
2023-05-01T19:16:10.442Z,3.22
2023-05-01T19:21:12.080Z,2.70
2023-05-01T19:26:13.881Z,3.15
2023-05-01T19:31:15.633Z,3.42
2023-05-01T19:36:19.040Z,2.90
2023-05-01T19:41:18.426Z,3.28
2023-05-01T19:46:50.428Z,3.10
2023-05-01T19:52:07.000Z,3.05
2023-05-01T19:57:20.518Z,3.05
2023-05-01T20:14:22.628Z,3.80
2023-05-01T20:19:48.376Z,2.83
2023-05-01T20:25:22.696Z,2.38
2023-05-01T20:30:53.126Z,2.83
2023-05-01T20:36:12.880Z,2.40
2023-05-01T20:41:17.239Z,2.70
2023-05-01T20:46:43.501Z,2.67
2023-05-01T20:52:03.966Z,2.30
2023-05-01T20:57:28.234Z,2.20
2023-05-01T21:03:13.400Z,2.38
2023-05-01T21:08:31.346Z,2.60
2023-05-01T21:13:42.151Z,2.42
2023-05-01T21:18:47.224Z,1.90
2023-05-01T21:23:52.129Z,1.98
2023-05-01T21:28:52.266Z,2.53
2023-05-01T21:33:54.765Z,1.85
2023-05-01T21:38:58.557Z,2.28
2023-05-01T21:44:01.723Z,1.90
2023-05-01T21:49:02.700Z,1.70
2023-05-01T21:54:02.904Z,2.15
2023-05-01T21:59:04.856Z,2.13
2023-05-01T22:04:07.565Z,1.88
2023-05-01T22:09:06.620Z,1.70
2023-05-01T22:14:06.341Z,1.88
2023-05-01T22:19:09.492Z,1.70
2023-05-01T22:24:09.852Z,1.27
2023-05-01T22:29:08.479Z,1.88
2023-05-01T22:34:12.390Z,2.13
2023-05-01T22:39:13.134Z,2.22
2023-05-01T22:44:11.767Z,2.28
2023-05-01T22:49:09.310Z,2.78
2023-05-01T22:54:10.473Z,3.30
2023-05-01T22:59:14.511Z,3.10
2023-05-01T23:09:15.065Z,2.60
2023-05-01T23:14:16.866Z,3.25
2023-05-01T23:19:43.802Z,2.60
2023-05-01T23:24:53.890Z,4.65
2023-05-01T23:29:55.576Z,2.42
2023-05-01T23:34:55.092Z,2.65
2023-05-01T23:39:59.034Z,2.58
2023-05-01T23:49:56.133Z,3.08
2023-05-01T23:54:56.611Z,3.88
2023-05-01T23:59:58.191Z,3.50
